Time;durP1;ratioP1;P1;durP2;ratioP2;P2;SDS_P1;SDS_P2;PMS_P1;PMS_P2;Temp;Humidity;BMP_temperature;BMP_pressure;BME280_temperature;BME280_humidity;BME280_pressure;Samples;Min_cycle;Max_cycle;Signal;HPM_P1;HPM_P2
2024/01/15 00:00:43;;;;;;;5.60;3.45;;;20.90;49.90;;;;;;4945513;28;93049;-59
2024/01/15 00:03:09;;;;;;;4.95;3.30;;;20.80;49.90;;;;;;4943870;28;92896;-59
2024/01/15 00:05:35;;;;;;;4.65;3.63;;;20.80;50.00;;;;;;4944024;28;92109;-60
2024/01/15 00:08:01;;;;;;;4.70;3.30;;;20.80;49.80;;;;;;4944210;28;97011;-60
2024/01/15 00:10:27;;;;;;;5.60;3.55;;;20.80;50.10;;;;;;4940819;28;94032;-59
2024/01/15 00:12:53;;;;;;;6.07;3.13;;;20.80;50.00;;;;;;4943430;28;92817;-60
2024/01/15 00:15:20;;;;;;;3.63;2.80;;;20.70;49.90;;;;;;4947083;28;91899;-61
2024/01/15 00:17:46;;;;;;;4.95;3.55;;;20.70;49.90;;;;;;4938123;28;94237;-60
2024/01/15 00:20:13;;;;;;;4.22;3.22;;;20.70;49.90;;;;;;4942959;28;93429;-59
2024/01/15 00:22:41;;;;;;;4.97;3.35;;;20.70;49.90;;;;;;4935554;28;93777;-60
2024/01/15 00:25:08;;;;;;;6.47;3.60;;;20.60;49.90;;;;;;4937711;28;92962;-62
2024/01/15 00:27:35;;;;;;;5.45;3.40;;;20.60;49.90;;;;;;4946279;28;93092;-59
2024/01/15 00:30:02;;;;;;;4.63;3.47;;;20.60;50.00;;;;;;4959589;28;95342;-59
2024/01/15 00:32:28;;;;;;;6.63;3.80;;;20.60;50.70;;;;;;4959656;28;92785;-60
2024/01/15 00:34:53;;;;;;;5.07;4.10;;;20.60;50.10;;;;;;4943202;28;93030;-59
2024/01/15 00:37:19;;;;;;;4.60;3.65;;;20.50;49.90;;;;;;4945738;28;92689;-59
2024/01/15 00:39:45;;;;;;;5.60;3.33;;;20.50;49.90;;;;;;4942483;28;95437;-59
2024/01/15 00:42:10;;;;;;;5.07;3.40;;;20.50;50.10;;;;;;4945306;28;94788;-60
2024/01/15 00:44:36;;;;;;;4.80;3.53;;;20.50;50.10;;;;;;4944368;28;93373;-60
2024/01/15 00:47:02;;;;;;;4.00;3.50;;;20.50;50.10;;;;;;4961129;28;95309;-60
2024/01/15 00:49:27;;;;;;;5.20;3.67;;;20.50;49.90;;;;;;4948705;28;94018;-61
2024/01/15 00:51:53;;;;;;;3.63;3.22;;;20.40;50.10;;;;;;4928756;28;93198;-60
2024/01/15 00:54:19;;;;;;;4.55;3.60;;;20.40;50.10;;;;;;4930131;28;94689;-59
2024/01/15 00:56:44;;;;;;;5.20;3.45;;;20.40;50.10;;;;;;4948647;28;93028;-59
2024/01/15 00:59:10;;;;;;;3.83;3.30;;;20.40;50.00;;;;;;4946418;28;93850;-60
2024/01/15 01:01:37;;;;;;;4.88;3.83;;;20.40;49.90;;;;;;4947323;28;93886;-59
2024/01/15 01:04:03;;;;;;;4.97;3.58;;;20.40;50.00;;;;;;4949106;28;92141;-60
2024/01/15 01:06:29;;;;;;;4.70;3.08;;;20.30;49.90;;;;;;4948652;28;95645;-60
2024/01/15 01:08:56;;;;;;;4.65;3.03;;;20.30;49.90;;;;;;4953194;28;92817;-59
2024/01/15 01:11:21;;;;;;;4.45;3.65;;;20.30;50.00;;;;;;4949677;28;94425;-60
2024/01/15 01:13:48;;;;;;;6.55;3.92;;;20.30;50.00;;;;;;4952851;28;92410;-59
2024/01/15 01:16:14;;;;;;;4.47;3.35;;;20.30;50.10;;;;;;4954288;28;94474;-61
2024/01/15 01:18:39;;;;;;;3.92;3.53;;;20.20;50.10;;;;;;4947820;28;93060;-59
2024/01/15 01:21:05;;;;;;;5.57;3.90;;;20.30;50.00;;;;;;4961840;28;93292;-60
2024/01/15 01:23:31;;;;;;;4.22;3.05;;;20.20;49.90;;;;;;4963781;28;92269;-59
2024/01/15 01:25:56;;;;;;;4.13;3.15;;;20.20;49.90;;;;;;4962975;28;93151;-61
2024/01/15 01:28:22;;;;;;;5.65;3.78;;;20.20;49.90;;;;;;4962504;28;95108;-60
2024/01/15 01:30:48;;;;;;;4.75;3.42;;;20.20;50.00;;;;;;4950884;28;93033;-59
2024/01/15 01:33:13;;;;;;;3.75;3.08;;;20.20;50.00;;;;;;4954471;28;92946;-59
2024/01/15 01:35:40;;;;;;;4.20;3.45;;;20.20;49.90;;;;;;4945634;28;94421;-60
2024/01/15 01:38:06;;;;;;;3.50;3.17;;;20.20;49.90;;;;;;4954265;28;94115;-60
2024/01/15 01:40:31;;;;;;;4.80;3.30;;;20.10;49.90;;;;;;4950778;28;92137;-60
2024/01/15 01:42:57;;;;;;;5.50;3.95;;;20.10;49.80;;;;;;4960614;28;92919;-61
2024/01/15 01:45:23;;;;;;;5.20;3.65;;;20.10;50.00;;;;;;4947098;28;94203;-60
2024/01/15 01:47:49;;;;;;;5.05;3.72;;;20.10;49.90;;;;;;4947443;28;93041;-59
2024/01/15 01:50:15;;;;;;;4.70;3.15;;;20.10;50.60;;;;;;4955582;28;93360;-59
2024/01/15 01:52:41;;;;;;;5.30;3.72;;;20.10;49.90;;;;;;4947179;28;92091;-60
2024/01/15 01:55:09;;;;;;;4.78;3.38;;;20.10;50.00;;;;;;4950717;28;93965;-59
2024/01/15 01:57:35;;;;;;;6.38;4.40;;;20.00;49.90;;;;;;4954003;28;93066;-59
2024/01/15 02:00:03;;;;;;;3.92;3.33;;;20.00;49.90;;;;;;4951801;28;93568;-60
2024/01/15 02:02:30;;;;;;;6.60;4.00;;;20.00;49.90;;;;;;4948231;28;92737;-59
2024/01/15 02:04:56;;;;;;;3.92;2.88;;;20.00;49.90;;;;;;4952902;28;93234;-59
2024/01/15 02:07:23;;;;;;;4.68;3.67;;;20.00;50.00;;;;;;4954319;28;95160;-60
2024/01/15 02:09:49;;;;;;;4.20;3.00;;;20.00;49.90;;;;;;4964833;28;92599;-59
2024/01/15 02:12:15;;;;;;;3.92;2.97;;;20.00;49.90;;;;;;4946851;28;92698;-60
2024/01/15 02:14:41;;;;;;;4.05;3.40;;;20.00;49.90;;;;;;4943067;28;93060;-61
2024/01/15 02:17:07;;;;;;;4.25;3.30;;;20.00;49.90;;;;;;4963790;28;93872;-61
2024/01/15 02:19:33;;;;;;;4.57;3.42;;;19.90;49.90;;;;;;4946651;28;92641;-60
2024/01/15 02:22:00;;;;;;;5.82;3.40;;;19.90;49.90;;;;;;4961429;28;92180;-60
2024/01/15 02:24:26;;;;;;;4.22;3.00;;;19.90;49.80;;;;;;4944890;28;94043;-60
2024/01/15 02:26:51;;;;;;;4.85;3.60;;;19.90;49.80;;;;;;4963541;28;94566;-60
2024/01/15 02:29:17;;;;;;;4.65;3.47;;;19.90;50.00;;;;;;4954049;28;92850;-62
2024/01/15 02:31:44;;;;;;;5.32;3.47;;;19.90;49.90;;;;;;4945452;28;93477;-59
2024/01/15 02:34:10;;;;;;;4.97;3.53;;;19.90;50.00;;;;;;4942399;28;92631;-60
2024/01/15 02:36:37;;;;;;;5.38;3.47;;;19.80;49.80;;;;;;4951440;28;92695;-60
2024/01/15 02:39:03;;;;;;;4.45;3.85;;;19.80;49.80;;;;;;4947258;28;92542;-61
2024/01/15 02:41:29;;;;;;;4.03;3.13;;;19.80;50.00;;;;;;4949791;28;91823;-61
2024/01/15 02:44:29;;;;;;;4.72;3.38;;;19.80;50.00;;;;;;4955792;28;94125;-60
2024/01/15 02:46:55;;;;;;;6.07;4.10;;;19.80;49.90;;;;;;4947526;28;93705;-60
2024/01/15 02:49:21;;;;;;;3.92;3.00;;;19.80;50.10;;;;;;4947206;28;93011;-60
2024/01/15 02:51:46;;;;;;;5.00;3.60;;;19.80;50.10;;;;;;4958241;28;93620;-59
2024/01/15 02:54:12;;;;;;;4.50;3.30;;;19.70;49.90;;;;;;4944782;28;93037;-59
2024/01/15 02:56:38;;;;;;;4.85;3.85;;;19.70;49.90;;;;;;4959409;28;94062;-60
2024/01/15 02:59:04;;;;;;;3.80;3.05;;;19.70;50.10;;;;;;4946671;28;92780;-60
2024/01/15 03:01:29;;;;;;;4.97;3.75;;;19.70;49.70;;;;;;4943985;28;92351;-61
2024/01/15 03:03:55;;;;;;;4.88;3.45;;;19.70;49.80;;;;;;4931673;28;94316;-60
2024/01/15 03:06:21;;;;;;;5.88;3.25;;;19.70;50.00;;;;;;4945093;28;93394;-60
2024/01/15 03:08:46;;;;;;;4.63;3.47;;;19.70;50.00;;;;;;4938846;28;92772;-59
2024/01/15 03:11:13;;;;;;;3.55;3.22;;;19.70;50.00;;;;;;4945098;28;93758;-59
2024/01/15 03:13:39;;;;;;;3.35;3.03;;;19.70;49.90;;;;;;4958724;28;95284;-60
2024/01/15 03:16:06;;;;;;;5.72;3.88;;;19.70;50.00;;;;;;4940693;28;94375;-61
2024/01/15 03:18:32;;;;;;;5.40;3.55;;;19.60;50.00;;;;;;4949186;28;92805;-59
2024/01/15 03:21:01;;;;;;;5.43;3.55;;;19.60;50.00;;;;;;4949403;28;92400;-59
2024/01/15 03:23:27;;;;;;;4.20;3.33;;;19.60;50.10;;;;;;4947780;28;93172;-60
2024/01/15 03:25:53;;;;;;;4.20;3.22;;;19.60;49.90;;;;;;4943829;28;92925;-61
2024/01/15 03:28:20;;;;;;;4.03;3.25;;;19.60;49.90;;;;;;4964328;28;92674;-62
2024/01/15 03:30:45;;;;;;;4.75;3.75;;;19.60;50.10;;;;;;4953652;28;91855;-60
2024/01/15 03:33:11;;;;;;;4.18;3.30;;;19.60;50.70;;;;;;4945634;28;93102;-59
2024/01/15 03:35:37;;;;;;;4.75;3.92;;;19.50;49.90;;;;;;4943939;28;92831;-58
2024/01/15 03:38:03;;;;;;;5.53;3.50;;;19.50;49.90;;;;;;4961858;28;93301;-60
2024/01/15 03:40:29;;;;;;;4.43;3.20;;;19.50;49.90;;;;;;4944848;28;91985;-59
2024/01/15 03:42:55;;;;;;;4.55;3.55;;;19.50;50.00;;;;;;4944063;28;93864;-61
2024/01/15 03:45:22;;;;;;;4.55;3.38;;;19.50;49.90;;;;;;4948316;28;92846;-59
2024/01/15 03:47:47;;;;;;;4.45;3.22;;;19.50;49.80;;;;;;4948359;28;92305;-60
2024/01/15 03:50:13;;;;;;;4.15;3.45;;;19.50;49.80;;;;;;4962594;28;93194;-59
2024/01/15 03:52:39;;;;;;;4.30;3.38;;;19.50;49.80;;;;;;4949307;28;93128;-60
2024/01/15 03:55:05;;;;;;;4.93;3.20;;;19.50;50.00;;;;;;4948909;28;93398;-59
2024/01/15 03:57:31;;;;;;;3.92;3.05;;;19.50;49.90;;;;;;4947230;28;92180;-59
2024/01/15 03:59:57;;;;;;;4.30;3.40;;;19.40;49.90;;;;;;4944579;28;92782;-61
2024/01/15 04:02:23;;;;;;;3.90;3.42;;;19.40;49.90;;;;;;4928327;28;95195;-60
2024/01/15 04:04:49;;;;;;;4.88;3.53;;;19.40;49.90;;;;;;4958534;28;95420;-60
2024/01/15 04:07:15;;;;;;;3.70;2.83;;;19.40;50.00;;;;;;4960142;28;92206;-59
2024/01/15 04:09:41;;;;;;;3.97;3.17;;;19.40;49.90;;;;;;4948466;28;92526;-61
2024/01/15 04:12:08;;;;;;;3.80;3.00;;;19.40;50.50;;;;;;4952303;28;93234;-60
2024/01/15 04:14:34;;;;;;;4.53;3.20;;;19.40;49.80;;;;;;4953538;28;93491;-59
2024/01/15 04:17:00;;;;;;;4.57;3.25;;;19.40;49.70;;;;;;4944345;28;92560;-60
2024/01/15 04:19:26;;;;;;;4.88;3.28;;;19.40;49.90;;;;;;4950154;28;91379;-61
2024/01/15 04:21:53;;;;;;;3.20;2.90;;;19.40;49.80;;;;;;4943692;28;93751;-60
2024/01/15 04:24:19;;;;;;;5.80;2.90;;;19.40;49.80;;;;;;4942199;28;93501;-60
2024/01/15 04:26:45;;;;;;;4.20;3.28;;;19.40;50.00;;;;;;4954794;28;93727;-60
2024/01/15 04:29:11;;;;;;;3.90;3.30;;;19.30;50.00;;;;;;4951873;28;92378;-61
2024/01/15 04:31:37;;;;;;;4.20;3.30;;;19.30;49.90;;;;;;4954039;28;93204;-59
2024/01/15 04:34:03;;;;;;;4.72;3.03;;;19.30;49.90;;;;;;4964044;28;93909;-61
2024/01/15 04:36:28;;;;;;;4.55;3.00;;;19.30;49.90;;;;;;4946078;28;93030;-61
2024/01/15 04:38:54;;;;;;;4.82;3.28;;;19.30;49.90;;;;;;4962358;28;92616;-61
2024/01/15 04:41:20;;;;;;;3.95;2.90;;;19.30;49.90;;;;;;4957975;28;94226;-59
2024/01/15 04:43:46;;;;;;;4.00;3.05;;;19.30;49.90;;;;;;4948771;28;92832;-60
2024/01/15 04:46:12;;;;;;;4.32;3.00;;;19.30;49.90;;;;;;4947201;28;92446;-60
2024/01/15 04:48:39;;;;;;;4.32;3.20;;;19.30;49.80;;;;;;4962077;28;93373;-59
2024/01/15 04:51:06;;;;;;;3.55;2.85;;;19.20;49.90;;;;;;4950921;28;94950;-61
2024/01/15 04:53:33;;;;;;;4.80;3.65;;;19.20;49.90;;;;;;4964989;28;94176;-59
2024/01/15 04:55:59;;;;;;;3.97;3.13;;;19.20;49.80;;;;;;4948137;28;92675;-59
2024/01/15 04:58:26;;;;;;;4.22;3.22;;;19.20;49.80;;;;;;4959789;28;92728;-60
2024/01/15 05:00:52;;;;;;;4.10;3.42;;;19.20;49.90;;;;;;4950450;28;93194;-60
2024/01/15 05:03:18;;;;;;;3.92;3.03;;;19.20;50.00;;;;;;4951655;28;93927;-60
2024/01/15 05:05:44;;;;;;;4.25;3.08;;;19.20;49.80;;;;;;4944689;28;92429;-61
2024/01/15 05:08:11;;;;;;;3.88;2.83;;;19.20;49.80;;;;;;4963667;28;92168;-60
2024/01/15 05:10:36;;;;;;;4.55;2.97;;;19.20;49.90;;;;;;4944756;28;93188;-59
2024/01/15 05:13:02;;;;;;;4.25;3.00;;;19.20;49.80;;;;;;4948820;28;92589;-59
2024/01/15 05:15:28;;;;;;;4.93;3.30;;;19.20;49.90;;;;;;4950045;28;93884;-60
2024/01/15 05:17:53;;;;;;;3.72;2.95;;;19.10;50.00;;;;;;4944020;28;93210;-60
2024/01/15 05:20:19;;;;;;;4.82;3.30;;;19.10;50.00;;;;;;4957011;28;93147;-60
2024/01/15 05:22:45;;;;;;;3.65;3.08;;;19.10;49.80;;;;;;4954012;28;92797;-60
2024/01/15 05:25:10;;;;;;;4.38;3.10;;;19.10;49.80;;;;;;4947984;28;92936;-60
2024/01/15 05:27:36;;;;;;;4.05;2.85;;;19.10;49.70;;;;;;4946882;28;94373;-59
2024/01/15 05:30:03;;;;;;;3.92;2.95;;;19.10;49.70;;;;;;4943953;28;95962;-60
2024/01/15 05:32:30;;;;;;;3.75;3.03;;;19.10;49.80;;;;;;4953083;28;92825;-60
2024/01/15 05:34:55;;;;;;;3.63;2.78;;;19.10;49.70;;;;;;4941894;28;93530;-59
2024/01/15 05:37:22;;;;;;;3.10;2.60;;;19.10;49.80;;;;;;4950709;28;92646;-61
2024/01/15 05:39:48;;;;;;;3.83;3.03;;;19.10;49.70;;;;;;4944425;28;96730;-59
2024/01/15 05:42:14;;;;;;;5.28;3.58;;;19.10;49.70;;;;;;4962768;28;94794;-60
2024/01/15 05:44:41;;;;;;;3.83;3.15;;;19.10;49.70;;;;;;4945478;28;92599;-59
2024/01/15 05:47:07;;;;;;;4.68;3.45;;;19.00;49.70;;;;;;4948800;28;92610;-59
2024/01/15 05:49:33;;;;;;;3.72;2.92;;;19.00;49.50;;;;;;4950502;28;93265;-60
2024/01/15 05:51:59;;;;;;;3.40;2.65;;;19.00;49.60;;;;;;4951901;28;92815;-61
2024/01/15 05:54:24;;;;;;;3.88;3.17;;;19.10;49.70;;;;;;4948250;28;92066;-61
2024/01/15 05:56:50;;;;;;;3.88;3.03;;;19.00;49.60;;;;;;4945267;28;91683;-61
2024/01/15 05:59:16;;;;;;;3.53;2.70;;;19.00;49.60;;;;;;4957587;28;93129;-60
2024/01/15 06:01:42;;;;;;;3.85;3.10;;;19.00;49.60;;;;;;4962834;28;93486;-59
2024/01/15 06:04:09;;;;;;;3.60;2.88;;;19.00;49.70;;;;;;4943729;28;93315;-60
2024/01/15 06:06:34;;;;;;;3.50;2.67;;;19.00;49.60;;;;;;4945767;28;92562;-61
2024/01/15 06:09:05;;;;;;;4.20;3.33;;;19.00;49.60;;;;;;4953137;28;93613;-60
2024/01/15 06:11:31;;;;;;;4.75;3.05;;;19.00;49.50;;;;;;4947171;28;93776;-60
2024/01/15 06:13:57;;;;;;;3.17;2.67;;;18.90;49.60;;;;;;4955615;28;92115;-59
2024/01/15 06:16:24;;;;;;;3.20;2.70;;;19.00;49.70;;;;;;4946443;28;92770;-60
2024/01/15 06:18:50;;;;;;;8.38;3.67;;;18.90;49.50;;;;;;4946826;28;93271;-60
2024/01/15 06:21:16;;;;;;;4.07;3.00;;;18.90;47.40;;;;;;4947336;28;94149;-60
2024/01/15 06:23:42;;;;;;;5.40;3.58;;;18.90;48.10;;;;;;4947839;28;92574;-59
2024/01/15 06:26:07;;;;;;;4.18;3.15;;;18.90;47.30;;;;;;4954839;28;93240;-59
2024/01/15 06:28:33;;;;;;;4.55;3.20;;;18.90;48.00;;;;;;4943722;28;94807;-60
2024/01/15 06:30:59;;;;;;;4.00;3.08;;;18.80;48.00;;;;;;4960133;28;93989;-61
2024/01/15 06:33:25;;;;;;;3.83;3.20;;;18.80;47.90;;;;;;4947534;28;92507;-60
2024/01/15 06:35:51;;;;;;;4.35;3.20;;;18.80;47.90;;;;;;4942409;28;92984;-60
2024/01/15 06:38:18;;;;;;;3.05;2.60;;;18.80;47.90;;;;;;4963011;28;93337;-60
2024/01/15 06:40:45;;;;;;;4.53;3.10;;;18.80;48.40;;;;;;4949999;28;93295;-59
2024/01/15 06:43:15;;;;;;;2.55;2.35;;;18.80;48.30;;;;;;4944484;28;92792;-60
2024/01/15 06:45:41;;;;;;;3.83;2.83;;;18.80;47.90;;;;;;4945130;28;92025;-59
2024/01/15 06:48:07;;;;;;;4.15;3.30;;;18.80;48.50;;;;;;4945932;28;93230;-61
2024/01/15 06:50:33;;;;;;;2.88;2.30;;;18.80;48.40;;;;;;4962270;28;94379;-60
2024/01/15 06:52:59;;;;;;;3.63;2.85;;;18.90;48.70;;;;;;4953897;28;92968;-59
2024/01/15 06:55:25;;;;;;;5.18;3.03;;;18.80;48.70;;;;;;4942400;28;92894;-64
2024/01/15 06:57:51;;;;;;;4.20;3.10;;;18.90;49.20;;;;;;4958615;28;96123;-63
2024/01/15 07:00:17;;;;;;;5.18;3.38;;;18.90;49.20;;;;;;4925087;28;93246;-59
2024/01/15 07:02:43;;;;;;;5.05;3.10;;;18.90;49.40;;;;;;4960768;28;92582;-60
2024/01/15 07:05:09;;;;;;;4.55;3.10;;;18.90;49.00;;;;;;4952413;28;92748;-59
2024/01/15 07:07:35;;;;;;;5.47;2.90;;;18.90;48.70;;;;;;4944940;28;94185;-53
2024/01/15 07:10:01;;;;;;;5.10;3.00;;;19.00;48.60;;;;;;4959831;28;93808;-61
2024/01/15 07:12:27;;;;;;;5.22;3.08;;;19.00;48.80;;;;;;4946332;28;92485;-60
2024/01/15 07:14:54;;;;;;;5.82;3.08;;;19.20;49.10;;;;;;4943970;28;92613;-62
2024/01/15 07:17:20;;;;;;;3.80;2.75;;;19.40;48.80;;;;;;4960955;28;94689;-61
2024/01/15 07:19:46;;;;;;;3.28;2.65;;;19.70;48.40;;;;;;4943427;28;93217;-59
2024/01/15 07:22:13;;;;;;;2.85;2.20;;;20.00;48.10;;;;;;4947659;28;92698;-61
2024/01/15 07:24:38;;;;;;;3.50;2.70;;;20.10;48.10;;;;;;4945654;28;93098;-60
2024/01/15 07:27:04;;;;;;;3.25;2.20;;;20.30;47.60;;;;;;4945065;28;93022;-61
2024/01/15 07:29:37;;;;;;;3.17;2.45;;;20.40;47.60;;;;;;4948242;28;93848;-61
2024/01/15 07:32:03;;;;;;;3.17;2.42;;;20.40;47.50;;;;;;4958485;28;93228;-62
2024/01/15 07:34:29;;;;;;;2.55;2.17;;;20.40;47.60;;;;;;4966807;28;91972;-60
2024/01/15 07:36:56;;;;;;;3.40;2.65;;;20.50;47.40;;;;;;4951873;28;93034;-61
2024/01/15 07:39:25;;;;;;;4.57;2.60;;;20.50;47.40;;;;;;4948269;28;92094;-62
2024/01/15 07:41:52;;;;;;;4.15;2.00;;;20.60;47.20;;;;;;4943341;28;94031;-64
2024/01/15 07:44:17;;;;;;;2.80;2.22;;;20.70;47.20;;;;;;4954077;28;92360;-61
2024/01/15 07:46:47;;;;;;;3.70;2.47;;;20.70;47.20;;;;;;4966590;28;93220;-62
2024/01/15 07:49:14;;;;;;;3.95;1.88;;;20.70;47.20;;;;;;4950679;28;94405;-62
2024/01/15 07:51:40;;;;;;;4.45;2.25;;;20.80;47.30;;;;;;4949615;28;92383;-61
2024/01/15 07:54:07;;;;;;;5.05;1.95;;;20.70;47.20;;;;;;4917829;28;93366;-61
2024/01/15 07:56:33;;;;;;;6.68;2.85;;;20.80;47.20;;;;;;4947991;28;92898;-60
2024/01/15 07:58:59;;;;;;;14.77;3.75;;;20.80;46.80;;;;;;4941048;28;94172;-61
2024/01/15 08:01:25;;;;;;;17.35;4.68;;;20.90;46.30;;;;;;4943819;28;92522;-60
2024/01/15 08:03:52;;;;;;;21.90;5.03;;;20.80;46.30;;;;;;4952485;28;93196;-61
2024/01/15 08:06:18;;;;;;;15.50;4.13;;;20.70;46.10;;;;;;4956135;28;94164;-62
2024/01/15 08:08:44;;;;;;;11.23;3.78;;;20.70;46.40;;;;;;4951904;28;93773;-61
2024/01/15 08:11:10;;;;;;;15.65;4.90;;;20.60;46.60;;;;;;4964767;28;92740;-61
2024/01/15 08:13:37;;;;;;;15.00;5.25;;;20.60;46.80;;;;;;4956223;28;92456;-60
2024/01/15 08:16:04;;;;;;;14.60;4.30;;;20.50;46.80;;;;;;4954763;28;93625;-60
2024/01/15 08:18:31;;;;;;;10.23;4.00;;;20.50;46.90;;;;;;4954477;28;93723;-60
2024/01/15 08:20:57;;;;;;;13.95;4.80;;;20.40;47.00;;;;;;4953011;28;92825;-62
2024/01/15 08:23:24;;;;;;;15.88;4.80;;;20.40;47.60;;;;;;4960722;28;92077;-61
2024/01/15 08:25:51;;;;;;;11.73;4.03;;;20.40;47.00;;;;;;4955609;28;93612;-61
2024/01/15 08:28:16;;;;;;;19.20;5.05;;;20.40;47.10;;;;;;4947389;28;93258;-61
2024/01/15 08:30:42;;;;;;;12.02;4.30;;;20.40;47.20;;;;;;4947354;28;93589;-60
2024/01/15 08:33:07;;;;;;;13.35;4.93;;;20.40;47.40;;;;;;4946695;28;93205;-60
2024/01/15 08:35:33;;;;;;;17.30;5.35;;;20.40;47.30;;;;;;4952653;28;93703;-61
2024/01/15 08:37:59;;;;;;;13.00;4.15;;;20.40;47.60;;;;;;4944860;28;93200;-62
2024/01/15 08:40:24;;;;;;;9.80;3.85;;;20.40;47.80;;;;;;4946419;28;92856;-62
2024/01/15 08:42:50;;;;;;;17.20;4.10;;;20.40;47.90;;;;;;4947871;28;92001;-60
2024/01/15 08:45:19;;;;;;;12.43;3.90;;;20.40;47.70;;;;;;4949080;28;93299;-62
2024/01/15 08:47:46;;;;;;;11.77;3.78;;;20.40;47.90;;;;;;4948834;28;93284;-61
2024/01/15 08:50:12;;;;;;;11.52;4.18;;;20.40;47.80;;;;;;4953004;28;92610;-61
2024/01/15 08:52:38;;;;;;;12.20;3.85;;;20.40;47.90;;;;;;4969755;28;92646;-61
2024/01/15 08:55:04;;;;;;;10.32;3.45;;;20.40;47.70;;;;;;4947055;28;95390;-61
2024/01/15 08:57:30;;;;;;;10.48;3.85;;;20.40;47.50;;;;;;4947324;28;93678;-62
2024/01/15 08:59:55;;;;;;;7.68;3.35;;;20.40;47.50;;;;;;4948865;28;92352;-61
2024/01/15 09:02:22;;;;;;;12.57;3.78;;;20.30;47.50;;;;;;4960398;28;92283;-61
2024/01/15 09:04:48;;;;;;;11.20;4.18;;;20.30;47.60;;;;;;4947161;28;92575;-61
2024/01/15 09:07:15;;;;;;;9.80;3.72;;;20.30;47.50;;;;;;4968345;28;95386;-61
2024/01/15 09:09:43;;;;;;;9.63;3.10;;;20.20;47.60;;;;;;4949621;28;92551;-61
2024/01/15 09:12:08;;;;;;;14.77;4.40;;;20.20;47.60;;;;;;4947692;28;91757;-60
2024/01/15 09:14:35;;;;;;;11.27;3.88;;;20.20;47.60;;;;;;4954057;28;93138;-60
2024/01/15 09:17:01;;;;;;;8.90;3.80;;;20.20;47.70;;;;;;4951017;28;98704;-60
2024/01/15 09:19:27;;;;;;;10.30;3.97;;;20.20;47.70;;;;;;4949550;28;93315;-61
2024/01/15 09:21:52;;;;;;;10.82;2.78;;;20.20;47.90;;;;;;4948174;28;92200;-60
2024/01/15 09:24:18;;;;;;;12.93;3.60;;;20.20;47.90;;;;;;4951986;28;93245;-62
2024/01/15 09:26:44;;;;;;;10.05;3.25;;;20.20;47.80;;;;;;4948100;28;92687;-61
2024/01/15 09:29:10;;;;;;;10.73;3.58;;;20.30;47.70;;;;;;4964674;28;95468;-62
2024/01/15 09:31:36;;;;;;;10.25;3.65;;;20.30;48.10;;;;;;4945588;28;93248;-61
2024/01/15 09:34:02;;;;;;;11.20;3.83;;;20.30;48.10;;;;;;4951711;28;93145;-62
2024/01/15 09:36:27;;;;;;;12.07;3.63;;;20.30;48.00;;;;;;4950930;28;92560;-61
2024/01/15 09:38:53;;;;;;;9.05;3.03;;;20.30;48.00;;;;;;4960138;28;92472;-62
2024/01/15 09:41:19;;;;;;;8.32;2.90;;;20.30;47.90;;;;;;4948664;28;91942;-61
2024/01/15 09:43:47;;;;;;;9.95;3.22;;;20.30;47.90;;;;;;4929432;28;94637;-61
2024/01/15 09:46:13;;;;;;;7.53;3.15;;;20.30;48.00;;;;;;4953111;28;93736;-61
2024/01/15 09:48:40;;;;;;;6.45;3.10;;;20.30;47.90;;;;;;4947059;28;92405;-61
2024/01/15 09:51:07;;;;;;;10.70;3.58;;;20.20;47.80;;;;;;4962181;28;93514;-60
2024/01/15 09:53:33;;;;;;;7.75;2.65;;;20.20;47.70;;;;;;4948650;28;93463;-60
2024/01/15 09:56:01;;;;;;;8.68;3.25;;;20.20;47.90;;;;;;4954071;28;95022;-60
2024/01/15 09:58:29;;;;;;;6.43;2.85;;;20.20;47.90;;;;;;4960787;28;92461;-62
2024/01/15 10:00:56;;;;;;;6.03;2.50;;;20.20;47.80;;;;;;4959929;28;92172;-66
2024/01/15 10:03:21;;;;;;;9.50;3.00;;;20.10;46.60;;;;;;4949363;28;92478;-66
2024/01/15 10:05:48;;;;;;;10.98;3.80;;;20.20;45.90;;;;;;4956924;28;92797;-66
2024/01/15 10:08:14;;;;;;;6.60;3.10;;;20.20;47.30;;;;;;4953471;28;93378;-67
2024/01/15 10:10:41;;;;;;;8.60;3.20;;;20.40;47.40;;;;;;4953531;28;93634;-69
2024/01/15 10:13:08;;;;;;;7.93;2.97;;;20.60;46.80;;;;;;4950204;28;92719;-64
2024/01/15 10:15:38;;;;;;;7.40;3.45;;;20.70;46.80;;;;;;4947966;28;92737;-64
2024/01/15 10:18:04;;;;;;;7.82;2.85;;;21.30;45.90;;;;;;4960676;28;92693;-64
2024/01/15 10:20:32;;;;;;;9.20;3.28;;;21.30;45.80;;;;;;4949016;28;92277;-66
2024/01/15 10:22:59;;;;;;;8.57;3.47;;;21.30;46.00;;;;;;4944202;28;93625;-64
2024/01/15 10:25:25;;;;;;;8.23;3.38;;;21.40;45.60;;;;;;4952908;28;92913;-67
2024/01/15 10:28:04;;;;;;;11.57;3.22;;;21.50;45.60;;;;;;4950559;28;92362;-65
2024/01/15 10:30:32;;;;;;;10.90;3.08;;;21.50;45.60;;;;;;4946630;28;92932;-64
2024/01/15 10:33:02;;;;;;;7.03;3.13;;;21.50;45.10;;;;;;4943649;28;94196;-65
2024/01/15 10:35:36;;;;;;;7.85;2.97;;;21.50;45.10;;;;;;4948830;28;94742;-65
2024/01/15 10:38:02;;;;;;;7.72;2.90;;;21.50;44.90;;;;;;4945364;28;93076;-68
2024/01/15 10:40:29;;;;;;;10.63;3.72;;;21.60;44.50;;;;;;4960732;28;93099;-66
2024/01/15 10:42:55;;;;;;;7.97;3.15;;;21.70;44.70;;;;;;4950266;28;92680;-65
2024/01/15 10:45:21;;;;;;;8.85;2.95;;;21.80;44.70;;;;;;4953379;28;94080;-64
2024/01/15 10:47:48;;;;;;;5.43;3.15;;;22.00;44.40;;;;;;4953629;28;92565;-66
2024/01/15 10:50:14;;;;;;;8.98;2.72;;;22.00;44.80;;;;;;4972937;28;91631;-65
2024/01/15 10:52:41;;;;;;;8.77;2.75;;;22.20;44.30;;;;;;4947474;28;93377;-65
2024/01/15 10:55:10;;;;;;;8.10;3.13;;;22.20;44.60;;;;;;4951306;28;94854;-65
2024/01/15 10:57:39;;;;;;;6.57;3.15;;;22.20;44.80;;;;;;4952624;28;93075;-64
2024/01/15 11:00:06;;;;;;;8.43;2.80;;;22.20;45.30;;;;;;4947353;28;92458;-64
2024/01/15 11:02:37;;;;;;;5.38;2.85;;;22.20;45.50;;;;;;4947470;28;96511;-66
2024/01/15 11:05:03;;;;;;;8.52;3.67;;;22.20;45.90;;;;;;4946571;28;100296;-65
2024/01/15 11:07:30;;;;;;;5.30;2.40;;;22.20;46.00;;;;;;4952450;28;92052;-66
2024/01/15 11:09:58;;;;;;;7.30;2.65;;;22.20;46.50;;;;;;4950869;28;92650;-68
2024/01/15 11:12:24;;;;;;;8.27;3.20;;;22.20;46.80;;;;;;4950750;28;93227;-67
2024/01/15 11:14:51;;;;;;;5.03;2.53;;;22.30;46.80;;;;;;4956429;28;92795;-70
2024/01/15 11:17:18;;;;;;;8.15;2.53;;;22.40;47.20;;;;;;4953947;28;92674;-71
2024/01/15 11:19:45;;;;;;;4.47;2.03;;;22.40;47.30;;;;;;4956012;28;92709;-71
2024/01/15 11:22:30;;;;;;;5.75;2.42;;;22.40;47.40;;;;;;4962971;28;95153;-69
2024/01/15 11:25:13;;;;;;;7.57;2.80;;;22.40;47.50;;;;;;4953377;28;93743;-70
2024/01/15 11:27:43;;;;;;;6.38;2.13;;;22.50;47.50;;;;;;4951047;28;92251;-65
2024/01/15 11:30:11;;;;;;;9.00;2.95;;;22.60;47.00;;;;;;4945723;28;92697;-68
2024/01/15 11:32:39;;;;;;;5.70;2.40;;;22.50;44.40;;;;;;4943145;28;93081;-65
2024/01/15 11:35:08;;;;;;;11.70;2.47;;;22.50;43.30;;;;;;4955444;28;93018;-66
2024/01/15 11:37:54;;;;;;;8.27;1.98;;;22.50;43.50;;;;;;4947994;28;92172;-65
2024/01/15 11:40:21;;;;;;;6.13;2.28;;;22.50;43.30;;;;;;4966179;28;91799;-65
2024/01/15 11:42:48;;;;;;;4.10;1.70;;;22.40;44.10;;;;;;4948521;28;93141;-65
2024/01/15 11:45:22;;;;;;;3.58;1.90;;;22.30;43.30;;;;;;4946889;28;92828;-66
2024/01/15 11:48:06;;;;;;;6.13;1.90;;;22.30;44.00;;;;;;4954815;28;93484;-64
2024/01/15 11:50:32;;;;;;;4.60;1.70;;;22.30;43.60;;;;;;4945819;28;92773;-65
2024/01/15 11:53:01;;;;;;;7.15;2.30;;;22.30;43.60;;;;;;4943243;28;92419;-66
2024/01/15 11:55:33;;;;;;;7.43;2.13;;;22.40;43.50;;;;;;4944454;28;92678;-67
2024/01/15 11:58:01;;;;;;;4.88;1.80;;;22.40;44.10;;;;;;4950394;28;92636;-64
2024/01/15 12:00:28;;;;;;;5.68;1.92;;;22.40;43.90;;;;;;4954393;28;92304;-67
2024/01/15 12:02:54;;;;;;;5.20;1.98;;;22.40;43.60;;;;;;4952301;28;93063;-70
2024/01/15 12:05:20;;;;;;;6.70;1.75;;;22.50;44.00;;;;;;4942282;28;93488;-68
2024/01/15 12:07:49;;;;;;;6.50;1.67;;;22.50;43.80;;;;;;4938174;28;94080;-70
2024/01/15 12:10:20;;;;;;;3.53;1.90;;;22.50;43.50;;;;;;4937272;28;93769;-72
2024/01/15 12:12:59;;;;;;;6.30;2.20;;;22.50;43.60;;;;;;4949892;28;94581;-72
2024/01/15 12:15:29;;;;;;;5.10;1.95;;;22.60;43.60;;;;;;4952610;28;93752;-70
2024/01/15 12:18:01;;;;;;;5.63;2.33;;;22.60;43.80;;;;;;4948082;28;92697;-69
2024/01/15 12:20:28;;;;;;;8.52;2.58;;;22.60;43.80;;;;;;4955896;28;92954;-68
2024/01/15 12:22:57;;;;;;;4.45;1.65;;;22.60;43.70;;;;;;4947059;28;94206;-66
2024/01/15 12:25:24;;;;;;;5.22;1.55;;;22.60;43.80;;;;;;4951264;28;92483;-66
2024/01/15 12:27:50;;;;;;;10.90;2.17;;;22.50;43.70;;;;;;4925076;28;93376;-65
2024/01/15 12:30:16;;;;;;;7.22;2.08;;;22.40;44.00;;;;;;4932499;28;91942;-67
2024/01/15 12:32:42;;;;;;;5.78;1.80;;;22.40;44.30;;;;;;4966728;28;93282;-66
2024/01/15 12:35:09;;;;;;;4.45;1.77;;;22.30;44.30;;;;;;4954341;28;93500;-71
2024/01/15 12:37:36;;;;;;;5.13;2.00;;;22.20;44.30;;;;;;4929862;28;93298;-68
2024/01/15 12:40:04;;;;;;;6.70;2.00;;;22.10;44.50;;;;;;4943319;28;93249;-68
2024/01/15 12:42:31;;;;;;;6.07;1.98;;;22.10;44.80;;;;;;4950153;28;93557;-64